Adelma Beach, Washington
Current Conditions -  °F | °C
As of 8:56 PM on Friday 31 Oct 2014 (Local Time) from KNUW Reporting Station
Light Fog Light Fog  
Wind Chill: 44°   Ceiling: Unl
Heat Index: 46°   Visibility: 10mi
Dew Point: 43°   Wind: 5mph
Humidity: 89%   Direction: 110°ESE
Pressure: 29.89"   Gusts: NA
Location:  48.026°N, 122.859°W
Report Text: KNUW 010356Z 11004KT 10SM MIFG FEW003 SCT060 SCT250 08/06 A2989 RMK AO2 SLP124 T00780061 $
Loading
Personal Weather Stations






























Interactive Weather Map
Tropical Storm Tracking
New forecast layout! Learn more

10-Day Weather Forecast

Advertisements
Track Severe Weather on mobile